Time;durP1;ratioP1;P1;durP2;ratioP2;P2;SDS_P1;SDS_P2;PMS_P1;PMS_P2;Temp;Humidity;BMP_temperature;BMP_pressure;BME280_temperature;BME280_humidity;BME280_pressure;Samples;Min_cycle;Max_cycle;Signal;HPM_P1;HPM_P2
2021/08/27 00:00:44;;;;;;;6.33;4.35;;;;;;;25.96;47.89;100092.65;1781829;78;21035;-47
2021/08/27 00:03:11;;;;;;;5.22;4.33;;;;;;;25.96;47.93;100094.04;1783536;78;21091;-48
2021/08/27 00:05:37;;;;;;;5.83;4.20;;;;;;;25.95;47.94;100085.45;1790978;78;21054;-45
2021/08/27 00:08:04;;;;;;;5.28;4.42;;;;;;;25.96;47.99;100089.05;1793600;78;20992;-45
2021/08/27 00:10:31;;;;;;;5.03;4.28;;;;;;;25.95;48.01;100086.84;1791859;79;21035;-44
2021/08/27 00:12:57;;;;;;;6.58;4.08;;;;;;;25.96;48.05;100089.86;1798588;78;21044;-47
2021/08/27 00:15:24;;;;;;;6.72;4.70;;;;;;;25.95;48.04;100086.84;1796620;78;21459;-47
2021/08/27 00:17:50;;;;;;;6.97;4.83;;;;;;;25.94;48.09;100097.77;1797127;79;21507;-46
2021/08/27 00:20:17;;;;;;;6.97;4.47;;;;;;;25.95;48.10;100103.57;1793160;78;21090;-46
2021/08/27 00:22:43;;;;;;;6.42;4.55;;;;;;;25.94;48.14;100107.53;1789362;79;21003;-45
2021/08/27 00:25:10;;;;;;;5.28;4.03;;;;;;;25.94;48.17;100111.70;1796620;78;21469;-45
2021/08/27 00:27:37;;;;;;;5.42;4.55;;;;;;;25.94;48.19;100111.70;1794249;78;21200;-48
2021/08/27 00:30:05;;;;;;;4.92;4.37;;;;;;;25.94;48.22;100110.31;1756280;80;21598;-45
2021/08/27 00:32:31;;;;;;;4.65;4.15;;;;;;;25.94;48.23;100115.89;1802978;78;21064;-46
2021/08/27 00:34:57;;;;;;;5.33;4.20;;;;;;;25.93;48.25;100112.88;1797273;79;21476;-45
2021/08/27 00:37:24;;;;;;;6.33;4.28;;;;;;;25.93;48.29;100114.89;1796177;78;21001;-49
2021/08/27 00:39:50;;;;;;;5.65;4.72;;;;;;;25.93;48.31;100112.09;1793513;79;23176;-47
2021/08/27 00:42:16;;;;;;;5.30;4.72;;;;;;;25.92;48.35;100114.08;1791052;79;21032;-46
2021/08/27 00:44:42;;;;;;;4.58;4.08;;;;;;;25.93;48.37;100100.95;1789591;79;21026;-45
2021/08/27 00:47:08;;;;;;;5.85;4.37;;;;;;;25.92;48.40;100102.93;1791698;78;21073;-49
2021/08/27 00:49:35;;;;;;;6.12;4.17;;;;;;;25.91;48.41;100099.33;1791673;79;21034;-47
2021/08/27 00:52:01;;;;;;;5.25;4.28;;;;;;;25.92;48.43;100091.78;1786896;79;21461;-47
2021/08/27 00:54:27;;;;;;;5.53;4.28;;;;;;;25.91;48.47;100085.98;1789839;79;21382;-46
2021/08/27 00:56:53;;;;;;;6.67;4.55;;;;;;;25.91;48.49;100081.80;1791468;79;21052;-45
2021/08/27 00:59:20;;;;;;;9.18;4.92;;;;;;;25.91;48.51;100081.80;1764692;79;21562;-45
2021/08/27 01:01:46;;;;;;;7.37;4.60;;;;;;;25.90;48.55;100082.97;1800537;79;21350;-46
2021/08/27 01:04:12;;;;;;;5.12;4.22;;;;;;;25.90;48.56;100085.17;1794869;79;21069;-48
2021/08/27 01:06:46;;;;;;;6.35;4.45;;;;;;;25.90;48.57;100089.94;1801081;79;21079;-46
2021/08/27 01:09:34;;;;;;;4.47;3.98;;;;;;;25.90;48.59;100083.78;1753552;81;21005;-46
2021/08/27 01:12:05;;;;;;;6.08;4.12;;;;;;;25.89;48.64;100084.95;1754093;80;21040;-45
2021/08/27 01:14:36;;;;;;;6.10;4.17;;;;;;;25.89;48.64;100078.56;1795148;79;21040;-47
2021/08/27 01:17:28;;;;;;;4.80;4.33;;;;;;;25.87;48.67;100073.38;1794560;78;21054;-46
2021/08/27 01:20:22;;;;;;;4.85;4.25;;;;;;;25.87;48.69;100071.98;1794734;79;20940;-46
2021/08/27 01:23:15;;;;;;;5.00;4.30;;;;;;;25.87;48.72;100069.78;1790687;79;21075;-46
2021/08/27 01:25:48;;;;;;;5.17;4.00;;;;;;;25.86;48.74;100073.16;1791882;79;21031;-47
2021/08/27 01:28:14;;;;;;;8.00;4.05;;;;;;;25.85;48.77;100070.73;1794607;78;21014;-44
2021/08/27 01:30:46;;;;;;;4.95;4.17;;;;;;;25.85;48.81;100072.13;1793686;79;21484;-44
2021/08/27 01:33:15;;;;;;;5.80;4.35;;;;;;;25.83;48.84;100071.13;1781034;79;21000;-43
2021/08/27 01:35:55;;;;;;;6.25;4.03;;;;;;;25.83;48.85;100068.33;1780876;79;20995;-44
2021/08/27 01:38:23;;;;;;;6.60;5.10;;;;;;;25.83;48.92;100066.12;1767972;79;20960;-46
2021/08/27 01:40:50;;;;;;;4.90;4.40;;;;;;;25.83;48.93;100071.70;1791983;78;21436;-46
2021/08/27 01:43:16;;;;;;;5.47;4.35;;;;;;;25.82;48.96;100072.29;1776607;79;21196;-43
2021/08/27 01:45:45;;;;;;;6.70;4.03;;;;;;;25.81;49.00;100058.13;1766971;78;21478;-42
2021/08/27 01:48:11;;;;;;;5.00;4.37;;;;;;;25.82;49.01;100057.55;1790134;78;21075;-44
2021/08/27 01:50:37;;;;;;;4.92;4.03;;;;;;;25.82;49.03;100052.78;1801605;78;21871;-45
2021/08/27 01:53:04;;;;;;;5.45;4.30;;;;;;;25.82;49.07;100050.58;1796303;78;20914;-44
2021/08/27 01:55:30;;;;;;;6.53;4.62;;;;;;;25.82;49.08;100052.78;1796969;78;21027;-46
2021/08/27 01:57:56;;;;;;;5.72;4.65;;;;;;;25.81;49.10;100051.16;1741802;81;21004;-45
2021/08/27 02:00:23;;;;;;;4.72;4.05;;;;;;;25.81;49.13;100056.73;1763990;80;21007;-44
2021/08/27 02:02:49;;;;;;;4.33;3.72;;;;;;;25.81;49.18;100049.77;1752769;81;21115;-43
2021/08/27 02:05:15;;;;;;;5.12;3.92;;;;;;;25.81;49.19;100051.75;1761606;80;21629;-44
2021/08/27 02:07:41;;;;;;;6.33;4.70;;;;;;;25.80;49.20;100053.73;1757465;80;21225;-45
2021/08/27 02:10:07;;;;;;;5.15;4.42;;;;;;;25.81;49.22;100047.56;1756067;80;20913;-43
2021/08/27 02:12:33;;;;;;;5.80;4.35;;;;;;;25.81;49.25;100059.52;1756425;80;21067;-44
2021/08/27 02:15:00;;;;;;;5.47;4.05;;;;;;;25.81;49.27;100057.32;1721023;81;21052;-43
2021/08/27 02:17:26;;;;;;;5.95;4.33;;;;;;;25.81;49.29;100055.93;1736643;81;20897;-48
2021/08/27 02:19:53;;;;;;;5.85;4.20;;;;;;;25.80;49.30;100055.12;1755213;81;21122;-45
2021/08/27 02:22:19;;;;;;;5.12;4.08;;;;;;;25.80;49.32;100056.52;1754784;80;21456;-43
2021/08/27 02:24:53;;;;;;;6.00;4.12;;;;;;;25.80;49.34;100052.95;1758294;80;21040;-47
2021/08/27 02:27:19;;;;;;;8.13;3.70;;;;;;;25.80;49.37;100054.34;1755442;80;21066;-44
2021/08/27 02:29:46;;;;;;;6.22;4.45;;;;;;;25.80;49.39;100055.12;1749151;81;21066;-44
2021/08/27 02:32:12;;;;;;;5.33;4.05;;;;;;;25.80;49.40;100048.16;1746562;81;21833;-45
2021/08/27 02:34:42;;;;;;;4.58;3.77;;;;;;;25.81;49.41;100050.36;1728794;81;21080;-43
2021/08/27 02:37:09;;;;;;;5.08;4.28;;;;;;;25.78;49.46;100054.70;1753227;80;21807;-48
2021/08/27 02:39:35;;;;;;;4.97;4.20;;;;;;;25.79;49.48;100059.69;1732688;81;21080;-46
2021/08/27 02:42:02;;;;;;;4.95;3.98;;;;;;;25.79;49.51;100054.12;1758934;80;21053;-48
2021/08/27 02:44:28;;;;;;;4.62;4.10;;;;;;;25.78;49.53;100050.52;1767119;80;21718;-45
2021/08/27 02:46:54;;;;;;;6.42;4.45;;;;;;;25.79;49.54;100054.12;1802252;78;21068;-47
2021/08/27 02:49:20;;;;;;;5.50;3.98;;;;;;;25.77;49.56;100044.73;1779636;79;20863;-46
2021/08/27 02:52:18;;;;;;;6.10;4.25;;;;;;;25.77;49.57;100050.30;1760738;79;21435;-46
2021/08/27 02:55:04;;;;;;;4.62;4.15;;;;;;;25.78;49.61;100054.70;1781624;78;21088;-47
2021/08/27 02:57:39;;;;;;;6.03;4.50;;;;;;;25.77;49.64;100055.06;1791146;78;21493;-45
2021/08/27 03:00:07;;;;;;;5.20;4.17;;;;;;;25.77;49.64;100063.42;1740800;79;21497;-47
2021/08/27 03:02:33;;;;;;;5.33;3.98;;;;;;;25.76;49.69;100065.40;1798415;79;21040;-49
2021/08/27 03:05:10;;;;;;;4.72;4.10;;;;;;;25.76;49.70;100072.36;1785998;79;21989;-47
2021/08/27 03:07:41;;;;;;;6.05;4.60;;;;;;;25.75;49.75;100074.15;1785159;79;21119;-43
2021/08/27 03:10:19;;;;;;;4.75;4.10;;;;;;;25.75;49.77;100082.50;1765094;79;21816;-44
2021/08/27 03:12:58;;;;;;;5.10;3.85;;;;;;;25.75;49.77;100083.31;1791327;79;21271;-47
2021/08/27 03:15:45;;;;;;;4.70;4.20;;;;;;;25.75;49.82;100085.29;1777365;79;21114;-46
2021/08/27 03:18:21;;;;;;;8.28;4.20;;;;;;;25.74;49.83;100094.23;1788240;79;21036;-47
2021/08/27 03:20:56;;;;;;;5.92;4.37;;;;;;;25.73;49.84;100096.80;1785154;79;21142;-48
2021/08/27 03:23:23;;;;;;;6.37;3.87;;;;;;;25.74;49.88;100102.59;1783902;78;21084;-46
2021/08/27 03:25:49;;;;;;;6.58;4.10;;;;;;;25.73;49.90;100101.56;1757007;81;21060;-46
2021/08/27 03:28:24;;;;;;;5.62;4.35;;;;;;;25.72;49.92;100101.33;1785140;78;21085;-46
2021/08/27 03:30:54;;;;;;;5.95;4.60;;;;;;;25.72;49.93;100102.14;1783284;79;21572;-45
2021/08/27 03:33:22;;;;;;;6.42;4.15;;;;;;;25.72;49.97;100097.16;1783929;79;21007;-47
2021/08/27 03:35:51;;;;;;;5.37;3.87;;;;;;;25.72;49.99;100095.17;1787644;79;21288;-46
2021/08/27 03:38:19;;;;;;;5.60;4.15;;;;;;;25.71;50.03;100097.77;1792876;78;21124;-45
2021/08/27 03:40:45;;;;;;;5.60;3.92;;;;;;;25.72;50.05;100096.57;1797217;79;21027;-46
2021/08/27 03:43:13;;;;;;;3.98;3.55;;;;;;;25.71;50.05;100096.38;1789311;78;21104;-46
2021/08/27 03:45:39;;;;;;;5.37;3.83;;;;;;;25.71;50.08;100095.56;1785857;79;21094;-47
2021/08/27 03:48:06;;;;;;;4.92;3.75;;;;;;;25.71;50.11;100098.35;1789926;78;21126;-47
2021/08/27 03:50:33;;;;;;;6.72;3.87;;;;;;;25.72;50.11;100095.77;1779124;79;21099;-47
2021/08/27 03:53:00;;;;;;;5.80;4.08;;;;;;;25.71;50.13;100096.95;1790119;78;21089;-46
2021/08/27 03:55:26;;;;;;;5.55;4.08;;;;;;;25.72;50.17;100101.33;1800473;78;21490;-46
2021/08/27 03:57:53;;;;;;;5.45;3.90;;;;;;;25.72;50.17;100106.32;1785027;78;21024;-46
2021/08/27 04:00:22;;;;;;;7.40;3.95;;;;;;;25.72;50.17;100105.52;1796290;79;21130;-46
2021/08/27 04:02:51;;;;;;;7.15;3.95;;;;;;;25.72;50.20;100112.48;1790048;78;21557;-46
2021/08/27 04:05:20;;;;;;;5.58;4.17;;;;;;;25.73;50.21;100118.28;1758541;79;21000;-46
2021/08/27 04:07:47;;;;;;;5.05;3.90;;;;;;;25.73;50.23;100121.06;1780772;78;21024;-47
2021/08/27 04:10:15;;;;;;;5.22;3.90;;;;;;;25.72;50.23;100123.62;1777748;78;21032;-48
2021/08/27 04:12:42;;;;;;;4.72;3.80;;;;;;;25.73;50.23;100126.05;1781754;79;21543;-46
2021/08/27 04:15:10;;;;;;;7.03;4.17;;;;;;;25.73;50.23;100134.41;1772290;79;21063;-47
2021/08/27 04:17:37;;;;;;;5.25;3.60;;;;;;;25.73;50.26;100140.56;1783062;79;21024;-44
2021/08/27 04:20:05;;;;;;;4.42;3.50;;;;;;;25.72;50.25;100136.97;1786025;78;21092;-46
2021/08/27 04:22:31;;;;;;;5.33;3.90;;;;;;;25.72;50.26;100134.77;1799887;78;21530;-46
2021/08/27 04:24:57;;;;;;;4.80;3.80;;;;;;;25.73;50.29;100144.74;1794078;79;21216;-45
2021/08/27 04:27:24;;;;;;;5.90;3.83;;;;;;;25.72;50.27;100138.95;1779421;78;21034;-46
2021/08/27 04:29:50;;;;;;;5.17;3.77;;;;;;;25.73;50.29;100144.16;1793394;78;21034;-47
2021/08/27 04:32:18;;;;;;;6.03;3.95;;;;;;;25.73;50.29;100148.92;1795893;79;21049;-48
2021/08/27 04:34:44;;;;;;;5.22;3.80;;;;;;;25.73;50.29;100145.55;1783726;79;21079;-46
2021/08/27 04:37:10;;;;;;;4.67;3.87;;;;;;;25.72;50.31;100151.48;1805269;79;21960;-46
2021/08/27 04:39:36;;;;;;;4.97;3.52;;;;;;;25.73;50.31;100153.91;1785287;78;21055;-45
2021/08/27 04:42:04;;;;;;;4.10;3.37;;;;;;;25.73;50.31;100151.71;1791056;78;21705;-48
2021/08/27 04:44:30;;;;;;;4.37;3.30;;;;;;;25.73;50.33;100151.71;1788581;79;21034;-46
2021/08/27 04:46:56;;;;;;;5.03;3.72;;;;;;;25.73;50.33;100160.06;1798913;78;21443;-48
2021/08/27 04:49:22;;;;;;;3.52;3.20;;;;;;;25.73;50.35;100155.89;1782142;79;20988;-47
2021/08/27 04:51:49;;;;;;;4.60;3.65;;;;;;;25.73;50.35;100156.70;1778145;79;21124;-47
2021/08/27 04:54:15;;;;;;;7.05;3.85;;;;;;;25.74;50.35;100158.91;1780831;79;21508;-45
2021/08/27 04:56:42;;;;;;;5.65;3.70;;;;;;;25.72;50.36;100153.69;1778354;79;21044;-47
2021/08/27 04:59:08;;;;;;;4.00;3.60;;;;;;;25.72;50.38;100159.26;1773834;78;21024;-46
2021/08/27 05:01:34;;;;;;;5.92;4.08;;;;;;;25.72;50.40;100158.45;1791971;78;21589;-47
2021/08/27 05:04:00;;;;;;;4.35;3.47;;;;;;;25.72;50.42;100152.87;1778901;78;20925;-46
2021/08/27 05:06:26;;;;;;;5.03;4.03;;;;;;;25.73;50.43;100164.25;1784018;78;21083;-46
2021/08/27 05:08:52;;;;;;;4.97;3.55;;;;;;;25.73;50.45;100158.67;1786019;78;20953;-45
2021/08/27 05:11:18;;;;;;;4.83;3.30;;;;;;;25.73;50.45;100154.50;1798649;78;21024;-48
2021/08/27 05:13:44;;;;;;;4.95;3.70;;;;;;;25.74;50.48;100161.69;1796289;79;21248;-47
2021/08/27 05:16:10;;;;;;;3.85;3.25;;;;;;;25.73;50.48;100152.52;1794214;79;21636;-50
2021/08/27 05:18:37;;;;;;;5.25;3.72;;;;;;;25.73;50.50;100155.30;1780453;79;21100;-46
2021/08/27 05:21:03;;;;;;;4.83;2.95;;;;;;;25.74;50.49;100156.12;1801184;78;21044;-46
2021/08/27 05:23:29;;;;;;;5.28;3.47;;;;;;;25.73;50.48;100153.10;1794370;78;21011;-45
2021/08/27 05:25:55;;;;;;;5.60;3.77;;;;;;;25.73;50.50;100158.09;1779028;79;22062;-49
2021/08/27 05:28:21;;;;;;;6.65;4.22;;;;;;;25.73;50.51;100155.89;1792803;79;21033;-48
2021/08/27 05:30:47;;;;;;;5.55;4.70;;;;;;;25.73;50.55;100155.89;1795481;78;21567;-45
2021/08/27 05:33:13;;;;;;;7.40;4.78;;;;;;;25.72;50.55;100152.87;1792919;78;21544;-45
2021/08/27 05:35:42;;;;;;;7.08;4.47;;;;;;;25.74;50.60;100151.35;1782385;78;21092;-45
2021/08/27 05:38:09;;;;;;;7.10;4.90;;;;;;;25.73;50.64;100146.95;1795181;79;21986;-49
2021/08/27 05:40:35;;;;;;;7.00;4.70;;;;;;;25.74;50.70;100153.33;1783626;79;21116;-49
2021/08/27 05:43:01;;;;;;;6.47;4.50;;;;;;;25.74;50.75;100151.35;1783634;79;21083;-45
2021/08/27 05:45:27;;;;;;;7.28;4.75;;;;;;;25.74;50.80;100149.96;1779192;79;21810;-47
2021/08/27 05:47:54;;;;;;;8.00;4.90;;;;;;;25.75;50.82;100150.77;1797119;78;21010;-46
2021/08/27 05:50:20;;;;;;;6.35;4.50;;;;;;;25.76;50.85;100144.00;1793275;78;21080;-46
2021/08/27 05:52:46;;;;;;;9.65;4.92;;;;;;;25.76;50.87;100142.02;1790168;79;21605;-45
2021/08/27 05:55:12;;;;;;;5.45;4.42;;;;;;;25.76;50.87;100139.23;1787705;79;21654;-45
2021/08/27 05:57:39;;;;;;;6.30;4.60;;;;;;;25.77;50.89;100140.85;1783200;79;21080;-46
2021/08/27 06:00:07;;;;;;;5.47;4.08;;;;;;;25.77;50.87;100142.25;1774493;79;21511;-46
2021/08/27 06:02:33;;;;;;;6.95;4.40;;;;;;;25.77;50.88;100153.39;1802386;78;21261;-45
2021/08/27 06:05:00;;;;;;;7.30;4.53;;;;;;;25.79;50.91;100160.00;1791011;78;20952;-46
2021/08/27 06:07:27;;;;;;;5.83;4.53;;;;;;;25.80;50.93;100163.02;1803677;79;21081;-46
2021/08/27 06:09:53;;;;;;;7.28;4.47;;;;;;;25.80;50.97;100158.84;1792683;78;21915;-47
2021/08/27 06:12:19;;;;;;;6.03;4.08;;;;;;;25.79;50.94;100155.23;1781672;78;21045;-48
2021/08/27 06:14:45;;;;;;;5.67;4.40;;;;;;;25.80;50.96;100153.27;1783729;79;22028;-47
2021/08/27 06:17:11;;;;;;;5.65;4.12;;;;;;;25.81;50.98;100154.85;1788187;79;21563;-47
2021/08/27 06:19:37;;;;;;;9.43;5.10;;;;;;;25.81;50.97;100157.05;1782151;78;21052;-45
2021/08/27 06:22:04;;;;;;;8.73;4.85;;;;;;;25.82;50.96;100157.28;1791450;79;20904;-48
2021/08/27 06:24:30;;;;;;;10.63;5.30;;;;;;;25.82;50.94;100153.10;1786836;78;21522;-46
2021/08/27 06:26:57;;;;;;;10.95;5.17;;;;;;;25.83;50.93;100160.30;1793426;79;21048;-47
2021/08/27 06:29:23;;;;;;;9.08;4.67;;;;;;;25.83;50.95;100155.30;1786319;79;21089;-47
2021/08/27 06:31:49;;;;;;;6.40;4.33;;;;;;;25.84;50.94;100164.67;1741361;81;21011;-46
2021/08/27 06:34:15;;;;;;;9.43;4.95;;;;;;;25.86;50.93;100162.92;1791339;79;20960;-50
2021/08/27 06:36:41;;;;;;;9.10;4.37;;;;;;;25.86;50.93;100165.13;1787791;79;20915;-47
2021/08/27 06:39:07;;;;;;;7.75;4.15;;;;;;;25.86;50.92;100161.52;1783662;79;22063;-49
2021/08/27 06:41:33;;;;;;;8.13;4.55;;;;;;;25.86;50.92;100160.13;1778262;78;21511;-46
2021/08/27 06:44:00;;;;;;;6.50;4.53;;;;;;;25.86;50.92;100161.52;1756212;80;21067;-46
2021/08/27 06:46:26;;;;;;;7.05;4.85;;;;;;;25.86;50.90;100161.52;1761219;80;21057;-49
2021/08/27 06:48:52;;;;;;;5.95;3.98;;;;;;;25.85;50.89;100153.75;1759075;80;21076;-51
2021/08/27 06:51:19;;;;;;;7.15;4.00;;;;;;;25.84;50.88;100156.31;1759967;80;21073;-48
2021/08/27 06:53:45;;;;;;;7.62;4.12;;;;;;;25.85;50.89;100166.88;1758041;80;21601;-48
2021/08/27 06:56:11;;;;;;;8.50;4.45;;;;;;;25.83;50.90;100163.08;1763980;80;21093;-49
2021/08/27 06:58:37;;;;;;;7.35;4.58;;;;;;;25.83;50.89;100164.47;1760445;80;21660;-49
2021/08/27 07:01:03;;;;;;;6.85;4.45;;;;;;;25.84;50.88;100169.47;1757460;80;20932;-49
2021/08/27 07:03:29;;;;;;;6.35;4.45;;;;;;;25.83;50.90;100163.08;1759344;80;21166;-46
2021/08/27 07:05:55;;;;;;;6.58;4.47;;;;;;;25.83;50.91;100157.51;1760866;80;21584;-46
2021/08/27 07:08:22;;;;;;;6.55;4.30;;;;;;;25.83;50.91;100153.91;1757384;80;21070;-48
2021/08/27 07:10:48;;;;;;;6.62;4.53;;;;;;;25.82;50.90;100148.92;1765082;80;21046;-46
2021/08/27 07:13:14;;;;;;;6.55;4.50;;;;;;;25.82;50.77;100141.14;1764730;80;21001;-47
2021/08/27 07:15:41;;;;;;;9.10;4.65;;;;;;;25.81;50.54;100149.28;1753846;80;21040;-48
2021/08/27 07:18:07;;;;;;;6.17;4.00;;;;;;;25.79;50.32;100139.11;1762564;80;21650;-47
2021/08/27 07:20:33;;;;;;;6.67;3.98;;;;;;;25.76;50.11;100143.41;1749727;80;21045;-48
2021/08/27 07:23:00;;;;;;;6.80;4.28;;;;;;;25.73;49.90;100136.39;1764218;80;21512;-46
2021/08/27 07:25:26;;;;;;;6.33;4.42;;;;;;;25.70;49.66;100144.91;1753953;80;21048;-46
2021/08/27 07:27:52;;;;;;;7.95;4.30;;;;;;;25.69;49.43;100142.48;1760571;80;21308;-46
2021/08/27 07:30:18;;;;;;;7.37;4.15;;;;;;;25.66;49.15;100145.42;1745590;80;21015;-49
2021/08/27 07:32:44;;;;;;;7.25;4.03;;;;;;;25.62;48.92;100148.73;1758987;80;21048;-47
2021/08/27 07:35:10;;;;;;;7.03;3.95;;;;;;;25.61;48.66;100163.02;1756504;80;21562;-48
2021/08/27 07:37:38;;;;;;;5.35;4.03;;;;;;;25.57;48.42;100167.13;1754870;80;21039;-45
2021/08/27 07:40:08;;;;;;;7.87;3.92;;;;;;;25.56;48.18;100170.27;1756255;80;20946;-46
2021/08/27 07:42:34;;;;;;;5.72;3.83;;;;;;;25.54;47.99;100170.66;1773464;79;21041;-45
2021/08/27 07:45:01;;;;;;;6.08;4.35;;;;;;;25.53;47.88;100168.19;1796956;78;21028;-46
2021/08/27 07:47:27;;;;;;;5.17;3.85;;;;;;;25.53;47.84;100179.33;1785240;78;20993;-46
2021/08/27 07:49:53;;;;;;;5.80;4.00;;;;;;;25.53;47.82;100174.60;1784733;78;20897;-47
2021/08/27 07:52:19;;;;;;;6.40;4.20;;;;;;;25.55;47.81;100171.43;1791097;78;21068;-48
2021/08/27 07:54:45;;;;;;;5.28;4.15;;;;;;;25.55;47.78;100174.22;1740865;81;21052;-47
2021/08/27 07:57:11;;;;;;;5.60;3.92;;;;;;;25.56;47.77;100168.88;1746171;80;21002;-47
2021/08/27 07:59:37;;;;;;;6.97;3.90;;;;;;;25.57;47.75;100173.27;1750348;80;21017;-46
2021/08/27 08:02:04;;;;;;;6.10;3.50;;;;;;;25.59;47.75;100179.30;1758753;80;21088;-45
2021/08/27 08:04:30;;;;;;;4.85;3.75;;;;;;;25.58;47.73;100184.06;1738973;80;21081;-47
2021/08/27 08:06:56;;;;;;;4.97;4.03;;;;;;;25.59;47.72;100175.13;1754157;80;20984;-49
2021/08/27 08:09:22;;;;;;;4.72;3.50;;;;;;;25.60;47.75;100178.11;1754729;80;21070;-47
2021/08/27 08:11:49;;;;;;;6.03;4.20;;;;;;;25.61;47.75;100174.97;1776752;78;21635;-46
2021/08/27 08:14:16;;;;;;;4.50;3.42;;;;;;;25.62;47.76;100175.19;1782776;79;21009;-47
2021/08/27 08:16:42;;;;;;;6.10;3.90;;;;;;;25.65;47.78;100180.02;1777701;79;21765;-45
2021/08/27 08:19:11;;;;;;;6.80;4.00;;;;;;;25.66;47.75;100180.83;1785968;78;21483;-45
2021/08/27 08:21:38;;;;;;;5.12;3.62;;;;;;;25.68;47.77;100175.69;1779392;79;20961;-47
2021/08/27 08:24:05;;;;;;;6.15;4.12;;;;;;;25.68;47.78;100161.75;1786240;79;21869;-50
2021/08/27 08:26:31;;;;;;;5.25;3.85;;;;;;;25.71;47.77;100170.80;1788759;78;21005;-48
2021/08/27 08:28:57;;;;;;;5.05;3.98;;;;;;;25.71;47.79;100174.97;1795163;78;21529;-46
2021/08/27 08:31:23;;;;;;;8.38;5.15;;;;;;;25.71;47.83;100168.01;1784180;78;21478;-46
2021/08/27 08:33:52;;;;;;;12.82;7.08;;;;;;;25.73;47.87;100158.09;1718865;82;21146;-47
2021/08/27 08:36:19;;;;;;;14.43;8.00;;;;;;;25.73;47.95;100158.09;1742925;81;21080;-47
2021/08/27 08:38:45;;;;;;;14.40;8.85;;;;;;;25.74;48.10;100150.55;1737527;81;21084;-46
2021/08/27 08:41:14;;;;;;;18.60;9.50;;;;;;;25.76;48.28;100155.14;1749769;80;21301;-45
2021/08/27 08:43:44;;;;;;;19.10;9.15;;;;;;;25.77;48.46;100155.37;1741510;81;21025;-46
2021/08/27 08:46:11;;;;;;;16.37;9.25;;;;;;;25.79;48.59;100146.07;1790024;79;21167;-46
2021/08/27 08:48:37;;;;;;;18.07;10.08;;;;;;;25.79;48.74;100141.89;1793259;78;21912;-49
2021/08/27 08:51:06;;;;;;;12.43;8.40;;;;;;;25.78;48.83;100132.72;1798442;78;21040;-45
2021/08/27 08:53:39;;;;;;;14.03;9.08;;;;;;;25.79;48.95;100137.71;1791066;78;21557;-46
2021/08/27 08:56:05;;;;;;;14.70;8.55;;;;;;;25.79;49.01;100135.73;1801962;79;21689;-45
2021/08/27 08:58:32;;;;;;;14.93;8.48;;;;;;;25.80;49.06;100137.32;1794467;78;21088;-46
2021/08/27 09:00:59;;;;;;;12.95;8.68;;;;;;;25.81;49.10;100138.13;1785670;79;21060;-46
2021/08/27 09:03:25;;;;;;;16.27;7.03;;;;;;;25.81;49.14;100136.73;1782264;79;21221;-48
2021/08/27 09:05:52;;;;;;;13.40;7.20;;;;;;;25.81;49.20;100127.80;1784135;79;21183;-48
2021/08/27 09:08:37;;;;;;;12.03;6.92;;;;;;;25.82;49.24;100126.62;1774249;78;21579;-46
2021/08/27 09:11:17;;;;;;;13.35;8.03;;;;;;;25.83;49.24;100131.62;1790460;78;21150;-46
2021/08/27 09:13:45;;;;;;;12.05;7.40;;;;;;;25.85;49.25;100134.24;1789143;78;21085;-47
2021/08/27 09:16:11;;;;;;;13.20;6.80;;;;;;;25.88;49.29;100128.53;1795168;79;21099;-50
2021/08/27 09:18:39;;;;;;;13.55;7.22;;;;;;;25.88;49.30;100127.95;1776564;78;23313;-47
2021/08/27 09:21:28;;;;;;;10.85;6.65;;;;;;;25.90;49.30;100130.34;1799853;79;21012;-50
2021/08/27 09:24:19;;;;;;;10.08;6.90;;;;;;;25.90;49.33;100121.98;1791913;79;21037;-46
2021/08/27 09:26:49;;;;;;;10.32;6.90;;;;;;;25.89;49.33;100111.42;1789591;79;21112;-46
2021/08/27 09:29:38;;;;;;;12.67;6.83;;;;;;;25.90;49.35;100120.59;1795248;79;21545;-45
2021/08/27 09:32:23;;;;;;;10.95;5.87;;;;;;;25.90;49.37;100119.20;1780630;78;21268;-46
2021/08/27 09:35:01;;;;;;;10.45;6.12;;;;;;;25.90;49.38;100127.56;1753547;80;21147;-46
2021/08/27 09:37:36;;;;;;;12.20;6.70;;;;;;;25.91;49.39;100129.18;1755665;80;21030;-50
2021/08/27 09:40:08;;;;;;;11.00;6.72;;;;;;;25.91;49.42;100119.42;1754420;80;21020;-50
2021/08/27 09:42:49;;;;;;;10.68;7.35;;;;;;;25.91;49.41;100114.66;1761910;80;21040;-47
2021/08/27 09:45:14;;;;;;;9.05;6.42;;;;;;;25.91;49.45;100106.30;1737279;81;21133;-45
2021/08/27 09:48:00;;;;;;;8.65;5.78;;;;;;;25.92;49.48;100097.35;1767212;80;21613;-48
2021/08/27 09:50:36;;;;;;;10.58;5.92;;;;;;;25.92;49.48;100090.39;1757074;80;21041;-49
2021/08/27 09:53:08;;;;;;;9.48;5.97;;;;;;;25.92;49.51;100080.63;1757669;80;21585;-50
2021/08/27 09:55:36;;;;;;;10.55;5.70;;;;;;;25.92;49.51;100077.84;1756817;80;21026;-45
2021/08/27 09:58:06;;;;;;;10.55;6.75;;;;;;;25.92;49.53;100076.45;1732017;80;21141;-46
2021/08/27 10:00:38;;;;;;;10.63;5.75;;;;;;;25.93;49.55;100082.22;1745589;80;21078;-46
2021/08/27 10:03:25;;;;;;;9.83;5.55;;;;;;;25.93;49.55;100078.84;1747104;80;21023;-50
2021/08/27 10:05:55;;;;;;;8.98;5.67;;;;;;;25.95;49.57;100084.64;1755417;80;21598;-47
2021/08/27 10:08:24;;;;;;;11.05;5.90;;;;;;;25.94;49.58;100074.08;1752240;80;21048;-46
2021/08/27 10:10:53;;;;;;;8.18;5.35;;;;;;;25.95;49.59;100069.31;1745172;80;21939;-47
2021/08/27 10:13:20;;;;;;;8.55;5.53;;;;;;;25.96;49.58;100077.31;1753541;80;21983;-46
2021/08/27 10:15:47;;;;;;;9.75;5.70;;;;;;;25.97;49.61;100071.94;1756929;80;21024;-47
2021/08/27 10:18:13;;;;;;;8.05;5.35;;;;;;;25.98;49.61;100073.55;1753537;80;21625;-45
2021/08/27 10:20:42;;;;;;;7.70;5.60;;;;;;;25.99;49.60;100063.22;1760524;80;21037;-45
2021/08/27 10:23:11;;;;;;;8.30;5.37;;;;;;;26.01;49.62;100062.27;1753109;80;22027;-46
2021/08/27 10:25:38;;;;;;;7.28;4.90;;;;;;;26.02;49.60;100061.88;1763464;80;21061;-46
2021/08/27 10:28:05;;;;;;;7.20;4.80;;;;;;;26.02;49.59;100050.72;1746126;81;21507;-46
2021/08/27 10:30:55;;;;;;;7.33;5.08;;;;;;;26.04;49.58;100048.97;1744879;81;21061;-47
2021/08/27 10:33:46;;;;;;;8.15;5.42;;;;;;;26.06;49.58;100057.75;1759241;80;21024;-44
2021/08/27 10:36:26;;;;;;;8.25;5.45;;;;;;;26.06;49.57;100050.20;1759764;80;25290;-45
2021/08/27 10:38:54;;;;;;;7.22;4.67;;;;;;;26.06;49.56;100046.02;1753429;80;21053;-45
2021/08/27 10:41:29;;;;;;;8.05;4.70;;;;;;;26.08;49.54;100038.69;1768031;80;21540;-46
2021/08/27 10:44:04;;;;;;;9.80;4.92;;;;;;;26.09;49.54;100048.08;1760757;80;21070;-45
2021/08/27 10:46:52;;;;;;;7.67;5.30;;;;;;;26.09;49.51;100048.66;1753380;80;20996;-45
2021/08/27 10:49:23;;;;;;;7.50;4.60;;;;;;;26.12;49.49;100049.30;1752501;80;21960;-46
2021/08/27 10:51:55;;;;;;;8.20;4.90;;;;;;;26.10;49.47;100041.30;1746945;81;20941;-48
2021/08/27 10:54:22;;;;;;;6.80;4.70;;;;;;;26.12;49.46;100044.53;1765129;80;21025;-46
2021/08/27 10:56:54;;;;;;;8.18;5.20;;;;;;;26.13;49.43;100039.19;1766270;80;21541;-45
2021/08/27 10:59:27;;;;;;;6.62;5.00;;;;;;;26.15;49.41;100037.39;1772001;80;20992;-45
2021/08/27 11:02:01;;;;;;;6.12;4.67;;;;;;;26.16;49.40;100035.64;1765010;80;21076;-46
2021/08/27 11:04:30;;;;;;;6.40;4.78;;;;;;;26.18;49.36;100031.88;1771722;80;21120;-45
2021/08/27 11:07:06;;;;;;;7.08;4.42;;;;;;;26.20;49.33;100039.91;1764036;80;21066;-45
2021/08/27 11:09:34;;;;;;;7.15;4.47;;;;;;;26.22;49.31;100034.77;1731336;80;21078;-45
2021/08/27 11:12:15;;;;;;;7.15;4.28;;;;;;;26.22;49.25;100034.77;1727807;82;21123;-46
2021/08/27 11:14:44;;;;;;;6.05;4.03;;;;;;;26.23;49.25;100031.59;1725607;81;21036;-44
2021/08/27 11:17:11;;;;;;;7.92;4.25;;;;;;;26.26;49.21;100027.27;1764341;80;21006;-46
2021/08/27 11:19:45;;;;;;;5.80;4.20;;;;;;;26.26;49.18;100022.50;1773254;80;21080;-46
2021/08/27 11:22:22;;;;;;;5.95;4.05;;;;;;;26.29;49.13;100020.93;1749381;81;21094;-45
2021/08/27 11:25:13;;;;;;;5.83;4.25;;;;;;;26.30;49.10;100023.36;1760272;80;21542;-45
2021/08/27 11:27:38;;;;;;;6.33;4.15;;;;;;;26.32;49.07;100022.38;1764324;80;21767;-47
2021/08/27 11:30:31;;;;;;;5.83;4.15;;;;;;;26.34;49.03;100025.61;1757945;80;21020;-45
2021/08/27 11:32:58;;;;;;;6.03;4.37;;;;;;;26.35;49.00;100020.22;1767066;80;21108;-45